Time;durP1;ratioP1;P1;durP2;ratioP2;P2;SDS_P1;SDS_P2;PMS_P1;PMS_P2;Temp;Humidity;BMP_temperature;BMP_pressure;BME280_temperature;BME280_humidity;BME280_pressure;Samples;Min_cycle;Max_cycle;Signal;HPM_P1;HPM_P2
2023/12/30 00:00:40;;;;;;;;;5.25;4.00;;;;;;;;5069206;28;10336;-82
2023/12/30 00:03:07;;;;;;;;;8.00;6.50;;;;;;;;5068519;28;9704;-82
2023/12/30 00:05:48;;;;;;;;;;;;;;;;;;;;;
2023/12/30 00:08:16;;;;;;;;;2.00;2.00;;;;;;;;5068509;28;9683;-82
2023/12/30 00:10:43;;;;;;;;;5.00;4.25;;;;;;;;5072338;28;9967;-82
2023/12/30 00:13:10;;;;;;;;;5.00;3.25;;;;;;;;5073910;28;9770;-82
2023/12/30 00:15:37;;;;;;;;;3.50;1.50;;;;;;;;5069955;28;9896;-82
2023/12/30 00:18:05;;;;;;;;;5.50;3.00;;;;;;;;5069075;28;10444;-81
2023/12/30 00:20:32;;;;;;;;;3.00;3.00;;;;;;;;5069882;28;10575;-82
2023/12/30 00:23:01;;;;;;;;;5.00;5.00;;;;;;;;5070177;28;9993;-81
2023/12/30 00:25:28;;;;;;;;;4.50;3.00;;;;;;;;5067320;28;9916;-81
2023/12/30 00:27:56;;;;;;;;;4.50;4.00;;;;;;;;5069688;28;9886;-80
2023/12/30 00:30:23;;;;;;;;;4.00;2.25;;;;;;;;5068931;28;9737;-82
2023/12/30 00:32:51;;;;;;;;;2.75;2.75;;;;;;;;5064723;28;9864;-81
2023/12/30 00:35:19;;;;;;;;;3.00;3.00;;;;;;;;5069463;28;9761;-80
2023/12/30 00:37:46;;;;;;;;;4.25;3.00;;;;;;;;5064457;28;10508;-79
2023/12/30 00:40:17;;;;;;;;;4.25;4.25;;;;;;;;5068733;28;9935;-81
2023/12/30 00:42:45;;;;;;;;;5.25;3.25;;;;;;;;5070110;28;10058;-82
2023/12/30 00:45:12;;;;;;;;;4.00;3.50;;;;;;;;5066828;28;9890;-81
2023/12/30 00:47:39;;;;;;;;;2.00;2.00;;;;;;;;5069719;28;10038;-80
2023/12/30 00:50:07;;;;;;;;;4.25;3.75;;;;;;;;5065890;28;9777;-81
2023/12/30 00:52:37;;;;;;;;;3.25;3.25;;;;;;;;5059552;28;9957;-80
2023/12/30 00:55:07;;;;;;;;;3.50;3.50;;;;;;;;5069784;28;9915;-80
2023/12/30 00:57:38;;;;;;;;;3.00;3.00;;;;;;;;5064668;28;10025;-82
2023/12/30 01:00:07;;;;;;;;;0.75;0.75;;;;;;;;5065904;28;9895;-82
2023/12/30 01:02:34;;;;;;;;;2.00;2.00;;;;;;;;5072989;28;9790;-79
2023/12/30 01:05:14;;;;;;;;;2.75;2.75;;;;;;;;5060584;28;9870;-81
2023/12/30 01:07:41;;;;;;;;;2.25;2.25;;;;;;;;5079982;28;9861;-76
2023/12/30 01:10:12;;;;;;;;;3.75;3.75;;;;;;;;5073512;28;9931;-78
2023/12/30 01:12:40;;;;;;;;;4.50;3.00;;;;;;;;5063509;28;9986;-82
2023/12/30 01:15:09;;;;;;;;;3.75;3.75;;;;;;;;5074144;28;9987;-81
2023/12/30 01:17:36;;;;;;;;;2.75;2.00;;;;;;;;5072241;28;9878;-79
2023/12/30 01:20:04;;;;;;;;;3.75;2.00;;;;;;;;5067949;28;9956;-79
2023/12/30 01:22:34;;;;;;;;;4.50;4.50;;;;;;;;5059092;28;9996;-81
2023/12/30 01:25:05;;;;;;;;;3.00;2.25;;;;;;;;5074762;28;9744;-81
2023/12/30 01:27:32;;;;;;;;;5.00;5.00;;;;;;;;5064475;28;9758;-80
2023/12/30 01:30:01;;;;;;;;;4.00;4.00;;;;;;;;5073338;28;9898;-82
2023/12/30 01:32:29;;;;;;;;;4.00;4.00;;;;;;;;5069210;28;9939;-82
2023/12/30 01:34:56;;;;;;;;;2.00;2.00;;;;;;;;5070778;28;9822;-82
2023/12/30 01:37:23;;;;;;;;;0.50;0.50;;;;;;;;5072924;28;9764;-82
2023/12/30 01:39:50;;;;;;;;;5.50;2.25;;;;;;;;5073619;28;9937;-82
2023/12/30 01:42:18;;;;;;;;;3.00;3.00;;;;;;;;5069605;28;9933;-82
2023/12/30 01:44:45;;;;;;;;;2.00;2.00;;;;;;;;5068532;28;10070;-82
2023/12/30 01:47:14;;;;;;;;;8.75;2.50;;;;;;;;5068180;28;9964;-81
2023/12/30 01:49:42;;;;;;;;;3.00;3.00;;;;;;;;5068140;28;9934;-82
2023/12/30 01:52:10;;;;;;;;;3.50;3.00;;;;;;;;5055472;28;9945;-82
2023/12/30 01:54:37;;;;;;;;;2.75;1.00;;;;;;;;5068551;28;10046;-81
2023/12/30 01:57:05;;;;;;;;;3.00;3.00;;;;;;;;5068205;28;10703;-80
2023/12/30 01:59:33;;;;;;;;;3.00;3.00;;;;;;;;5070622;28;10023;-81
2023/12/30 02:02:04;;;;;;;;;2.25;2.25;;;;;;;;5069351;28;10707;-82
2023/12/30 02:04:32;;;;;;;;;3.25;3.25;;;;;;;;5067706;28;10139;-81
2023/12/30 02:07:01;;;;;;;;;3.00;3.00;;;;;;;;5066762;28;9741;-80
2023/12/30 02:09:28;;;;;;;;;1.50;1.50;;;;;;;;5068968;28;10031;-81
2023/12/30 02:11:56;;;;;;;;;2.50;2.00;;;;;;;;5070492;28;10686;-83
2023/12/30 02:14:24;;;;;;;;;3.00;3.00;;;;;;;;5072777;28;10015;-82
2023/12/30 02:16:51;;;;;;;;;3.00;3.00;;;;;;;;5071879;28;10041;-82
2023/12/30 02:19:19;;;;;;;;;2.50;2.50;;;;;;;;5071212;28;10610;-83
2023/12/30 02:21:48;;;;;;;;;2.50;2.50;;;;;;;;5071375;28;9909;-81
2023/12/30 02:24:16;;;;;;;;;3.00;3.00;;;;;;;;5072591;28;9870;-82
2023/12/30 02:26:44;;;;;;;;;3.00;3.00;;;;;;;;5058603;28;9962;-82
2023/12/30 02:29:11;;;;;;;;;9.00;5.00;;;;;;;;5072170;28;10137;-82
2023/12/30 02:31:45;;;;;;;;;2.00;2.00;;;;;;;;5071208;28;9899;-82
2023/12/30 02:34:13;;;;;;;;;3.25;2.50;;;;;;;;5071087;28;9898;-82
2023/12/30 02:36:40;;;;;;;;;3.00;3.00;;;;;;;;5070953;28;9852;-82
2023/12/30 02:39:07;;;;;;;;;7.25;3.00;;;;;;;;5070286;28;10068;-83
2023/12/30 02:41:36;;;;;;;;;3.00;3.00;;;;;;;;5069972;28;10097;-83
2023/12/30 02:44:04;;;;;;;;;2.00;2.00;;;;;;;;5071917;28;10059;-81
2023/12/30 02:46:32;;;;;;;;;7.00;3.00;;;;;;;;5069522;28;9913;-82
2023/12/30 02:49:04;;;;;;;;;3.00;3.00;;;;;;;;5071016;28;10026;-80
2023/12/30 02:51:32;;;;;;;;;2.50;2.50;;;;;;;;5069950;28;9938;-82
2023/12/30 02:54:00;;;;;;;;;1.25;1.25;;;;;;;;5071357;28;9936;-80
2023/12/30 02:56:28;;;;;;;;;2.25;2.25;;;;;;;;5071883;28;9847;-80
2023/12/30 02:58:58;;;;;;;;;2.75;2.75;;;;;;;;5072138;28;9859;-81
2023/12/30 03:01:27;;;;;;;;;2.50;1.00;;;;;;;;5073868;28;10690;-80
2023/12/30 03:03:55;;;;;;;;;4.75;1.75;;;;;;;;5073011;28;9841;-80
2023/12/30 03:06:23;;;;;;;;;4.00;2.75;;;;;;;;5075203;28;10023;-83
2023/12/30 03:08:51;;;;;;;;;1.50;1.25;;;;;;;;5074521;28;9866;-83
2023/12/30 03:11:19;;;;;;;;;3.50;2.00;;;;;;;;5066255;28;10429;-80
2023/12/30 03:13:48;;;;;;;;;9.00;3.00;;;;;;;;5074911;28;9906;-82
2023/12/30 03:16:18;;;;;;;;;1.00;1.00;;;;;;;;5070913;28;9882;-82
2023/12/30 03:18:46;;;;;;;;;3.00;3.00;;;;;;;;5069002;28;9917;-81
2023/12/30 03:21:15;;;;;;;;;2.00;2.00;;;;;;;;5073350;28;9937;-82
2023/12/30 03:23:43;;;;;;;;;1.00;1.00;;;;;;;;5067075;28;9946;-81
2023/12/30 03:26:10;;;;;;;;;4.00;2.25;;;;;;;;5072472;28;10024;-81
2023/12/30 03:28:38;;;;;;;;;4.00;2.00;;;;;;;;5074320;28;10034;-82
2023/12/30 03:31:06;;;;;;;;;0.75;0.75;;;;;;;;5073107;28;9905;-82
2023/12/30 03:33:35;;;;;;;;;5.25;2.00;;;;;;;;5071238;28;9855;-82
2023/12/30 03:36:02;;;;;;;;;2.00;2.00;;;;;;;;5068840;28;10705;-81
2023/12/30 03:38:31;;;;;;;;;6.00;2.50;;;;;;;;5071525;28;9937;-82
2023/12/30 03:40:58;;;;;;;;;4.00;2.25;;;;;;;;5075307;28;9930;-79
2023/12/30 03:43:30;;;;;;;;;3.00;1.00;;;;;;;;5081693;28;9872;-82
2023/12/30 03:45:57;;;;;;;;;2.00;2.00;;;;;;;;5071350;28;9860;-81
2023/12/30 03:48:25;;;;;;;;;5.75;3.00;;;;;;;;5072094;28;9961;-82
2023/12/30 03:50:53;;;;;;;;;3.00;2.00;;;;;;;;5071068;28;10640;-82
2023/12/30 03:53:22;;;;;;;;;3.00;1.00;;;;;;;;5073473;28;10028;-81
2023/12/30 03:55:50;;;;;;;;;3.00;3.00;;;;;;;;5071885;28;10639;-83
2023/12/30 03:58:17;;;;;;;;;3.75;2.00;;;;;;;;5071822;28;10047;-81
2023/12/30 04:00:44;;;;;;;;;4.50;2.00;;;;;;;;5069541;28;9779;-82
2023/12/30 04:03:12;;;;;;;;;5.00;3.00;;;;;;;;5069806;28;9925;-82
2023/12/30 04:05:39;;;;;;;;;3.00;3.00;;;;;;;;5069857;28;9946;-82
2023/12/30 04:08:08;;;;;;;;;7.00;2.50;;;;;;;;5070895;28;10083;-81
2023/12/30 04:10:35;;;;;;;;;3.00;3.00;;;;;;;;5071548;28;10122;-82
2023/12/30 04:13:03;;;;;;;;;4.75;2.50;;;;;;;;5072101;28;10133;-82
2023/12/30 04:15:30;;;;;;;;;2.75;2.75;;;;;;;;5071494;28;10244;-81
2023/12/30 04:17:58;;;;;;;;;4.75;3.25;;;;;;;;5070590;28;9944;-80
2023/12/30 04:20:25;;;;;;;;;2.00;2.00;;;;;;;;5069637;28;10143;-80
2023/12/30 04:22:54;;;;;;;;;3.25;2.00;;;;;;;;5070111;28;10108;-80
2023/12/30 04:25:25;;;;;;;;;5.00;3.75;;;;;;;;5066990;28;10089;-80
2023/12/30 04:27:52;;;;;;;;;3.25;3.25;;;;;;;;5070355;28;10079;-79
2023/12/30 04:30:19;;;;;;;;;5.75;3.00;;;;;;;;5068088;28;10018;-81
2023/12/30 04:32:47;;;;;;;;;1.50;1.50;;;;;;;;5069194;28;10191;-79
2023/12/30 04:35:14;;;;;;;;;2.75;2.25;;;;;;;;5068047;28;10073;-82
2023/12/30 04:37:41;;;;;;;;;6.25;2.50;;;;;;;;5069360;28;10166;-80
2023/12/30 04:40:09;;;;;;;;;2.00;2.00;;;;;;;;5069715;28;10180;-79
2023/12/30 04:42:38;;;;;;;;;4.25;3.00;;;;;;;;5069136;28;10099;-78
2023/12/30 04:45:12;;;;;;;;;2.00;2.00;;;;;;;;5058228;28;10170;-79
2023/12/30 04:47:39;;;;;;;;;4.75;3.00;;;;;;;;5068152;28;10178;-79
2023/12/30 04:50:08;;;;;;;;;6.00;4.00;;;;;;;;5070097;28;10264;-79
2023/12/30 04:52:35;;;;;;;;;2.75;2.75;;;;;;;;5070579;28;10169;-79
2023/12/30 04:55:03;;;;;;;;;2.00;1.00;;;;;;;;5072775;28;10245;-80
2023/12/30 04:57:37;;;;;;;;;4.50;3.25;;;;;;;;5074121;28;10475;-82
2023/12/30 05:00:08;;;;;;;;;3.25;3.25;;;;;;;;5071645;28;10285;-80
2023/12/30 05:02:38;;;;;;;;;3.00;2.00;;;;;;;;5063005;28;10260;-79
2023/12/30 05:05:06;;;;;;;;;4.00;2.75;;;;;;;;5062080;28;10429;-79
2023/12/30 05:07:33;;;;;;;;;3.00;3.00;;;;;;;;5065054;28;10447;-81
2023/12/30 05:10:03;;;;;;;;;5.00;3.25;;;;;;;;5066602;28;10309;-81
2023/12/30 05:12:31;;;;;;;;;2.00;2.00;;;;;;;;5063921;28;10363;-81
2023/12/30 05:14:58;;;;;;;;;1.50;1.00;;;;;;;;5063544;28;11019;-77
2023/12/30 05:17:27;;;;;;;;;4.75;2.75;;;;;;;;5058945;28;10098;-78
2023/12/30 05:19:54;;;;;;;;;5.50;3.00;;;;;;;;5066531;28;10252;-79
2023/12/30 05:22:21;;;;;;;;;4.25;4.00;;;;;;;;5069369;28;10266;-81
2023/12/30 05:24:49;;;;;;;;;4.50;4.00;;;;;;;;5067922;28;10222;-77
2023/12/30 05:27:16;;;;;;;;;2.00;2.00;;;;;;;;5054887;28;10224;-81
2023/12/30 05:29:43;;;;;;;;;4.00;4.00;;;;;;;;5065024;28;10361;-80
2023/12/30 05:32:13;;;;;;;;;6.50;4.75;;;;;;;;5068138;28;10152;-82
2023/12/30 05:34:44;;;;;;;;;5.25;3.50;;;;;;;;5066406;28;11245;-81
2023/12/30 05:37:11;;;;;;;;;3.50;3.50;;;;;;;;5069089;28;10389;-80
2023/12/30 05:39:39;;;;;;;;;5.50;3.75;;;;;;;;5067518;28;10419;-81
2023/12/30 05:42:06;;;;;;;;;2.25;2.25;;;;;;;;5070565;28;10456;-80
2023/12/30 05:44:34;;;;;;;;;7.25;4.75;;;;;;;;5069294;28;10251;-81
2023/12/30 05:47:02;;;;;;;;;7.25;3.00;;;;;;;;5068216;28;11116;-81
2023/12/30 05:49:30;;;;;;;;;4.25;3.25;;;;;;;;5065087;28;10516;-80
2023/12/30 05:52:02;;;;;;;;;2.50;2.00;;;;;;;;5067961;28;10236;-80
2023/12/30 05:54:31;;;;;;;;;4.75;3.25;;;;;;;;5065537;28;10166;-80
2023/12/30 05:57:00;;;;;;;;;5.00;3.25;;;;;;;;5066472;28;10308;-80
2023/12/30 05:59:27;;;;;;;;;3.00;2.75;;;;;;;;5066958;28;10331;-80
2023/12/30 06:01:56;;;;;;;;;3.00;3.00;;;;;;;;5068383;28;10269;-81
2023/12/30 06:04:24;;;;;;;;;3.25;3.25;;;;;;;;5068441;28;11165;-81
2023/12/30 06:06:51;;;;;;;;;5.75;1.75;;;;;;;;5066317;28;10187;-80
2023/12/30 06:09:20;;;;;;;;;4.00;2.00;;;;;;;;5068052;28;10217;-81
2023/12/30 06:11:47;;;;;;;;;6.50;2.00;;;;;;;;5062411;28;10362;-81
2023/12/30 06:14:15;;;;;;;;;3.00;3.00;;;;;;;;5069298;28;10320;-77
2023/12/30 06:16:42;;;;;;;;;3.00;3.00;;;;;;;;5072495;28;10929;-81
2023/12/30 06:19:09;;;;;;;;;4.50;2.75;;;;;;;;5065030;28;10377;-79
2023/12/30 06:21:37;;;;;;;;;2.50;2.50;;;;;;;;5067461;28;10371;-80
2023/12/30 06:24:04;;;;;;;;;2.00;2.00;;;;;;;;5067933;28;10296;-80
2023/12/30 06:26:37;;;;;;;;;3.25;1.50;;;;;;;;5053779;28;10237;-79
2023/12/30 06:29:05;;;;;;;;;3.75;2.00;;;;;;;;5067799;28;10166;-79
2023/12/30 06:31:32;;;;;;;;;1.00;1.00;;;;;;;;5066586;28;10886;-79
2023/12/30 06:34:01;;;;;;;;;2.75;2.00;;;;;;;;5068125;28;10210;-78
2023/12/30 06:36:32;;;;;;;;;2.75;2.75;;;;;;;;5067448;28;10180;-79
2023/12/30 06:39:02;;;;;;;;;2.25;1.00;;;;;;;;5068402;28;10078;-79
2023/12/30 06:41:42;;;;;;;;;5.00;3.00;;;;;;;;5069544;28;11152;-80
2023/12/30 06:44:10;;;;;;;;;2.75;2.75;;;;;;;;5072153;28;10270;-79
2023/12/30 06:46:37;;;;;;;;;4.75;4.75;;;;;;;;5072861;28;10237;-80
2023/12/30 06:49:04;;;;;;;;;4.75;3.75;;;;;;;;5071000;28;10407;-80
2023/12/30 06:51:34;;;;;;;;;1.00;1.00;;;;;;;;5056572;28;10308;-80
2023/12/30 06:54:04;;;;;;;;;2.00;2.00;;;;;;;;5068413;28;10271;-79
2023/12/30 06:56:33;;;;;;;;;5.00;2.00;;;;;;;;5057876;28;10356;-79
2023/12/30 06:59:03;;;;;;;;;1.00;1.00;;;;;;;;5070015;28;10226;-80
2023/12/30 07:01:37;;;;;;;;;3.25;2.00;;;;;;;;5052563;28;10046;-80
2023/12/30 07:04:04;;;;;;;;;2.00;2.00;;;;;;;;5069678;28;10306;-80
2023/12/30 07:06:34;;;;;;;;;1.50;1.50;;;;;;;;5063428;28;10241;-79
2023/12/30 07:09:05;;;;;;;;;1.50;1.50;;;;;;;;5054438;28;10246;-80
2023/12/30 07:11:34;;;;;;;;;3.50;3.00;;;;;;;;5052557;28;10309;-80
2023/12/30 07:14:04;;;;;;;;;6.75;1.50;;;;;;;;5056210;28;10427;-81
2023/12/30 07:16:33;;;;;;;;;3.50;2.00;;;;;;;;5068681;28;10523;-82
2023/12/30 07:19:04;;;;;;;;;2.50;2.50;;;;;;;;5070160;28;11117;-80
2023/12/30 07:21:34;;;;;;;;;1.00;1.00;;;;;;;;5071469;28;10333;-79
2023/12/30 07:24:03;;;;;;;;;3.50;2.00;;;;;;;;5059937;28;10389;-80
2023/12/30 07:26:31;;;;;;;;;4.00;3.00;;;;;;;;5069610;28;10557;-80
2023/12/30 07:29:00;;;;;;;;;2.75;2.75;;;;;;;;5072521;28;10425;-79
2023/12/30 07:31:27;;;;;;;;;2.00;2.00;;;;;;;;5071311;28;10377;-79
2023/12/30 07:33:54;;;;;;;;;7.00;3.00;;;;;;;;5072926;28;10453;-79
2023/12/30 07:36:22;;;;;;;;;3.75;3.75;;;;;;;;5070465;28;10569;-79
2023/12/30 07:38:49;;;;;;;;;5.25;3.75;;;;;;;;5070715;28;10394;-78
2023/12/30 07:41:16;;;;;;;;;3.00;3.00;;;;;;;;5069867;28;10524;-80
2023/12/30 07:43:43;;;;;;;;;4.50;4.50;;;;;;;;5069474;28;11422;-79
2023/12/30 07:46:12;;;;;;;;;6.75;4.50;;;;;;;;5069551;28;10673;-78
2023/12/30 07:48:39;;;;;;;;;7.75;7.00;;;;;;;;5070053;28;10474;-79
2023/12/30 07:51:07;;;;;;;;;11.75;9.75;;;;;;;;5069694;28;10752;-79
2023/12/30 07:53:34;;;;;;;;;9.25;6.25;;;;;;;;5068876;28;10658;-80
2023/12/30 07:56:02;;;;;;;;;8.50;8.00;;;;;;;;5069415;28;10702;-80
2023/12/30 07:58:37;;;;;;;;;9.00;8.00;;;;;;;;5067872;28;10541;-79
2023/12/30 08:01:08;;;;;;;;;8.00;8.00;;;;;;;;5069159;28;10602;-78
2023/12/30 08:03:36;;;;;;;;;7.25;5.50;;;;;;;;5068745;28;10610;-80
2023/12/30 08:06:03;;;;;;;;;8.75;8.75;;;;;;;;5069596;28;10658;-80
2023/12/30 08:08:31;;;;;;;;;10.50;9.75;;;;;;;;5066518;28;10936;-80
2023/12/30 08:10:58;;;;;;;;;8.00;8.00;;;;;;;;5067847;28;10812;-79
2023/12/30 08:13:28;;;;;;;;;5.25;5.00;;;;;;;;5068842;28;10711;-80
2023/12/30 08:15:57;;;;;;;;;5.25;5.25;;;;;;;;5069924;28;10617;-80
2023/12/30 08:18:24;;;;;;;;;7.50;5.75;;;;;;;;5067433;28;10515;-79
2023/12/30 08:20:54;;;;;;;;;6.00;4.00;;;;;;;;5068415;28;10575;-78
2023/12/30 08:23:21;;;;;;;;;4.25;4.25;;;;;;;;5068870;28;10444;-76
2023/12/30 08:25:48;;;;;;;;;5.00;5.00;;;;;;;;5061665;28;10505;-79
2023/12/30 08:28:15;;;;;;;;;3.25;3.25;;;;;;;;5064015;28;10413;-79
2023/12/30 08:30:46;;;;;;;;;7.00;4.50;;;;;;;;5069255;28;10309;-79
2023/12/30 08:33:14;;;;;;;;;8.00;5.75;;;;;;;;5067900;28;10484;-77
2023/12/30 08:35:41;;;;;;;;;6.75;4.75;;;;;;;;5067716;28;10517;-80
2023/12/30 08:38:11;;;;;;;;;6.25;5.50;;;;;;;;5071278;28;10547;-79
2023/12/30 08:40:39;;;;;;;;;7.75;6.25;;;;;;;;5065128;28;10476;-78
2023/12/30 08:43:10;;;;;;;;;8.00;5.50;;;;;;;;5072879;28;10528;-80
2023/12/30 08:45:38;;;;;;;;;7.00;6.00;;;;;;;;5073513;28;10513;-81
2023/12/30 08:48:06;;;;;;;;;10.50;6.25;;;;;;;;5072145;28;10374;-80
2023/12/30 08:50:33;;;;;;;;;9.75;5.00;;;;;;;;5075890;28;10403;-78
2023/12/30 08:53:03;;;;;;;;;9.75;8.00;;;;;;;;5072491;28;10409;-73
2023/12/30 08:55:34;;;;;;;;;7.00;7.00;;;;;;;;5076234;28;11249;-77
2023/12/30 08:58:01;;;;;;;;;5.00;5.00;;;;;;;;5071018;28;10293;-75
2023/12/30 09:00:28;;;;;;;;;4.25;4.25;;;;;;;;5067054;28;10969;-75
2023/12/30 09:02:56;;;;;;;;;6.00;6.00;;;;;;;;5064673;28;10389;-74
2023/12/30 09:05:23;;;;;;;;;4.00;4.00;;;;;;;;5067978;28;10266;-76
2023/12/30 09:07:51;;;;;;;;;7.75;6.25;;;;;;;;5068370;28;10288;-76
2023/12/30 09:10:18;;;;;;;;;4.00;4.00;;;;;;;;5068224;28;10239;-75
2023/12/30 09:12:47;;;;;;;;;7.00;5.50;;;;;;;;5068422;28;10251;-76
2023/12/30 09:15:14;;;;;;;;;4.50;4.50;;;;;;;;5068654;28;10303;-76
2023/12/30 09:17:42;;;;;;;;;2.75;2.75;;;;;;;;5070250;28;10216;-73
2023/12/30 09:20:10;;;;;;;;;6.00;5.00;;;;;;;;5070486;28;10043;-73
2023/12/30 09:22:37;;;;;;;;;3.50;3.50;;;;;;;;5069614;28;9962;-74
2023/12/30 09:25:05;;;;;;;;;7.50;4.50;;;;;;;;5065317;28;10025;-72
2023/12/30 09:27:32;;;;;;;;;8.50;6.00;;;;;;;;5058491;28;10263;-74
2023/12/30 09:30:01;;;;;;;;;5.00;5.00;;;;;;;;5067285;28;10041;-74
2023/12/30 09:32:31;;;;;;;;;4.50;4.50;;;;;;;;5066009;28;9892;-74
2023/12/30 09:34:58;;;;;;;;;4.00;2.00;;;;;;;;5065663;28;9843;-74
2023/12/30 09:37:26;;;;;;;;;4.25;3.75;;;;;;;;5067805;28;10636;-74
2023/12/30 09:39:53;;;;;;;;;7.50;5.00;;;;;;;;5067632;28;9606;-74
2023/12/30 09:42:20;;;;;;;;;4.00;4.00;;;;;;;;5049482;28;10545;-75
2023/12/30 09:44:48;;;;;;;;;4.00;4.00;;;;;;;;5061972;28;9732;-74
2023/12/30 09:47:17;;;;;;;;;7.25;4.00;;;;;;;;5060422;28;9906;-73
2023/12/30 09:49:45;;;;;;;;;5.50;4.00;;;;;;;;5055753;28;9860;-73
2023/12/30 09:52:12;;;;;;;;;3.25;3.25;;;;;;;;5067934;28;9831;-75
2023/12/30 09:54:40;;;;;;;;;2.75;1.00;;;;;;;;5056283;28;9692;-75
2023/12/30 09:57:08;;;;;;;;;3.50;2.00;;;;;;;;5068967;28;9557;-77
2023/12/30 09:59:37;;;;;;;;;5.00;5.00;;;;;;;;5061234;28;9624;-74
2023/12/30 10:02:06;;;;;;;;;7.75;6.25;;;;;;;;5062348;28;10328;-74
2023/12/30 10:04:35;;;;;;;;;4.50;4.50;;;;;;;;5063005;28;9626;-75
2023/12/30 10:07:02;;;;;;;;;6.00;3.75;;;;;;;;5068719;28;9791;-75
2023/12/30 10:09:31;;;;;;;;;5.00;3.00;;;;;;;;5067513;28;9464;-75
2023/12/30 10:11:59;;;;;;;;;6.00;4.00;;;;;;;;5067441;28;9536;-74
2023/12/30 10:14:26;;;;;;;;;6.00;4.25;;;;;;;;5067980;28;9507;-74
2023/12/30 10:16:56;;;;;;;;;2.75;2.75;;;;;;;;5068897;28;9534;-75
2023/12/30 10:19:24;;;;;;;;;1.00;1.00;;;;;;;;5068476;28;9512;-72
2023/12/30 10:21:55;;;;;;;;;3.50;3.50;;;;;;;;5067248;28;9381;-71
2023/12/30 10:24:23;;;;;;;;;3.00;3.00;;;;;;;;5072858;28;9549;-73
2023/12/30 10:26:50;;;;;;;;;4.00;2.50;;;;;;;;5058952;28;9518;-72
2023/12/30 10:29:17;;;;;;;;;1.00;1.00;;;;;;;;5071361;28;9465;-73
2023/12/30 10:31:45;;;;;;;;;4.25;2.50;;;;;;;;5072196;28;9491;-73
2023/12/30 10:34:12;;;;;;;;;4.00;3.00;;;;;;;;5072958;28;9386;-73
2023/12/30 10:36:40;;;;;;;;;5.75;4.00;;;;;;;;5071761;28;9348;-72
2023/12/30 10:39:10;;;;;;;;;2.33;2.33;;;;;;;;5071341;28;9401;-72
2023/12/30 10:41:38;;;;;;;;;3.67;3.33;;;;;;;;5070953;28;9484;-72
2023/12/30 10:44:05;;;;;;;;;3.33;3.33;;;;;;;;5071781;28;9427;-74
2023/12/30 10:46:33;;;;;;;;;5.00;3.67;;;;;;;;5068098;28;9334;-76
2023/12/30 10:49:04;;;;;;;;;6.00;6.00;;;;;;;;5068396;28;9368;-75
2023/12/30 10:51:34;;;;;;;;;5.00;3.33;;;;;;;;5070295;28;9408;-75
2023/12/30 10:54:05;;;;;;;;;5.33;5.33;;;;;;;;5070466;28;9771;-75
2023/12/30 10:56:53;;;;;;;;;5.00;5.00;;;;;;;;5062123;28;10121;-74
2023/12/30 10:59:21;;;;;;;;;6.33;5.00;;;;;;;;5068805;28;9552;-73
2023/12/30 11:01:50;;;;;;;;;6.00;6.00;;;;;;;;5070410;28;9335;-76
2023/12/30 11:04:18;;;;;;;;;8.00;5.67;;;;;;;;5067702;28;9458;-74
2023/12/30 11:06:53;;;;;;;;;5.00;5.00;;;;;;;;5068893;28;9412;-74
2023/12/30 11:09:27;;;;;;;;;8.67;6.00;;;;;;;;5071166;28;9560;-74
2023/12/30 11:12:00;;;;;;;;;7.33;6.00;;;;;;;;5072431;28;9399;-74
2023/12/30 11:14:31;;;;;;;;;7.25;7.00;;;;;;;;5070936;28;9476;-77
2023/12/30 11:16:58;;;;;;;;;6.00;4.33;;;;;;;;5070548;28;9375;-75
2023/12/30 11:19:27;;;;;;;;;6.00;6.00;;;;;;;;5070472;28;9178;-73
2023/12/30 11:21:55;;;;;;;;;4.33;4.33;;;;;;;;5070361;28;9380;-73
2023/12/30 11:24:23;;;;;;;;;4.33;4.33;;;;;;;;5070898;28;9335;-75
2023/12/30 11:26:54;;;;;;;;;1.00;1.00;;;;;;;;5055993;28;9327;-72
2023/12/30 11:29:25;;;;;;;;;8.00;5.00;;;;;;;;5071023;28;9340;-74
2023/12/30 11:31:53;;;;;;;;;4.00;4.00;;;;;;;;5071423;28;9287;-74
2023/12/30 11:34:20;;;;;;;;;6.33;4.67;;;;;;;;5071508;28;9294;-72
2023/12/30 11:36:49;;;;;;;;;6.67;5.00;;;;;;;;5070400;28;9391;-76
2023/12/30 11:39:24;;;;;;;;;8.00;6.00;;;;;;;;5077116;28;9334;-80
2023/12/30 11:41:53;;;;;;;;;4.00;3.67;;;;;;;;5070402;28;9472;-76
2023/12/30 11:44:22;;;;;;;;;5.00;5.00;;;;;;;;5069361;28;9432;-76
2023/12/30 11:46:49;;;;;;;;;7.67;7.67;;;;;;;;5068579;28;10127;-75
2023/12/30 11:49:21;;;;;;;;;6.00;6.00;;;;;;;;5069366;28;9339;-75
2023/12/30 11:51:48;;;;;;;;;7.67;6.00;;;;;;;;5069619;28;9345;-76
2023/12/30 11:54:15;;;;;;;;;7.00;7.00;;;;;;;;5068706;28;9449;-76
2023/12/30 11:56:43;;;;;;;;;5.75;5.75;;;;;;;;5069793;28;10296;-71
2023/12/30 11:59:11;;;;;;;;;6.00;6.00;;;;;;;;5076942;28;9486;-74
2023/12/30 12:01:39;;;;;;;;;5.00;5.00;;;;;;;;5071293;28;9459;-74
2023/12/30 12:04:06;;;;;;;;;5.33;5.33;;;;;;;;5068160;28;9337;-74
2023/12/30 12:06:35;;;;;;;;;8.00;4.00;;;;;;;;5070648;28;9394;-75
2023/12/30 12:09:04;;;;;;;;;4.33;4.33;;;;;;;;5071806;28;9631;-74
2023/12/30 12:11:33;;;;;;;;;6.50;6.25;;;;;;;;5072872;28;9478;-73
2023/12/30 12:14:01;;;;;;;;;4.33;4.33;;;;;;;;5072787;28;9653;-75
2023/12/30 12:16:32;;;;;;;;;6.00;4.00;;;;;;;;5071075;28;9324;-76
2023/12/30 12:19:03;;;;;;;;;5.33;4.00;;;;;;;;5070193;28;9452;-74
2023/12/30 12:21:35;;;;;;;;;5.00;5.00;;;;;;;;5070575;28;9248;-74
2023/12/30 12:24:04;;;;;;;;;5.33;5.00;;;;;;;;5064711;28;9319;-76
2023/12/30 12:26:35;;;;;;;;;5.33;2.00;;;;;;;;5067068;28;9201;-78
2023/12/30 12:29:04;;;;;;;;;6.00;4.00;;;;;;;;5069437;28;10003;-74
2023/12/30 12:31:32;;;;;;;;;4.00;4.00;;;;;;;;5072104;28;8923;-75
2023/12/30 12:34:04;;;;;;;;;3.00;3.00;;;;;;;;5071515;28;9071;-73
2023/12/30 12:36:32;;;;;;;;;3.67;3.67;;;;;;;;5066957;28;9018;-76
2023/12/30 12:38:59;;;;;;;;;3.25;3.25;;;;;;;;5060761;28;8956;-78
2023/12/30 12:41:28;;;;;;;;;2.00;2.00;;;;;;;;5068752;28;8927;-76
2023/12/30 12:43:57;;;;;;;;;5.00;3.00;;;;;;;;5069395;28;8875;-78
2023/12/30 12:46:25;;;;;;;;;4.50;3.75;;;;;;;;5067942;28;8858;-76
2023/12/30 12:48:52;;;;;;;;;3.33;3.00;;;;;;;;5066841;28;8850;-77
2023/12/30 12:51:21;;;;;;;;;2.50;2.00;;;;;;;;5068568;28;9017;-75
2023/12/30 12:53:48;;;;;;;;;4.25;4.00;;;;;;;;5069416;28;8847;-75
2023/12/30 12:56:16;;;;;;;;;5.00;3.33;;;;;;;;5058015;28;8857;-75
2023/12/30 12:58:43;;;;;;;;;6.67;5.00;;;;;;;;5070232;28;9137;-75
2023/12/30 13:01:10;;;;;;;;;4.33;4.33;;;;;;;;5068782;28;8946;-74
2023/12/30 13:03:38;;;;;;;;;3.00;3.00;;;;;;;;5066615;28;8985;-76
2023/12/30 13:06:12;;;;;;;;;4.67;4.67;;;;;;;;5056931;28;9186;-72
2023/12/30 13:08:42;;;;;;;;;5.00;5.00;;;;;;;;5057561;28;9042;-73
2023/12/30 13:11:09;;;;;;;;;9.33;5.00;;;;;;;;5051156;28;9835;-75
2023/12/30 13:13:36;;;;;;;;;4.00;4.00;;;;;;;;5051782;28;9091;-75
2023/12/30 13:16:04;;;;;;;;;7.33;5.67;;;;;;;;5067320;28;9069;-75
2023/12/30 13:18:34;;;;;;;;;3.33;2.00;;;;;;;;5066608;28;9068;-75
2023/12/30 13:21:06;;;;;;;;;3.00;3.00;;;;;;;;5059836;28;8941;-74
2023/12/30 13:23:33;;;;;;;;;3.25;3.25;;;;;;;;5065115;28;8919;-74
2023/12/30 13:26:03;;;;;;;;;4.50;3.50;;;;;;;;5065646;28;8927;-75
2023/12/30 13:28:31;;;;;;;;;3.00;3.00;;;;;;;;5067609;28;8942;-75
2023/12/30 13:30:58;;;;;;;;;4.00;4.00;;;;;;;;5067789;28;8787;-74
2023/12/30 13:33:26;;;;;;;;;4.00;3.00;;;;;;;;5066522;28;9092;-74
2023/12/30 13:35:55;;;;;;;;;4.00;4.00;;;;;;;;5068209;28;8954;-74
2023/12/30 13:38:24;;;;;;;;;4.67;3.00;;;;;;;;5066034;28;9119;-74
2023/12/30 13:40:53;;;;;;;;;5.67;4.00;;;;;;;;5067674;28;9067;-74
2023/12/30 13:43:24;;;;;;;;;3.00;3.00;;;;;;;;5067204;28;9140;-75
2023/12/30 13:45:51;;;;;;;;;4.00;4.00;;;;;;;;5067545;28;8936;-74
2023/12/30 13:51:08;;;;;;;;;2.75;2.50;;;;;;;;5068611;28;8873;-74
2023/12/30 13:53:38;;;;;;;;;2.00;2.00;;;;;;;;5070538;28;8847;-76
2023/12/30 13:56:06;;;;;;;;;2.00;2.00;;;;;;;;5070950;28;8842;-74
2023/12/30 13:58:35;;;;;;;;;2.00;2.00;;;;;;;;5071423;28;8863;-73
2023/12/30 14:01:04;;;;;;;;;7.00;5.00;;;;;;;;5071002;28;8924;-74
2023/12/30 14:03:32;;;;;;;;;2.33;2.00;;;;;;;;5062077;28;9168;-74
2023/12/30 14:06:00;;;;;;;;;3.00;3.00;;;;;;;;5074143;28;9096;-75
2023/12/30 14:08:36;;;;;;;;;3.00;3.00;;;;;;;;5067898;28;8895;-74
2023/12/30 14:11:07;;;;;;;;;2.67;2.67;;;;;;;;5070000;28;8960;-75
2023/12/30 14:13:36;;;;;;;;;3.00;3.00;;;;;;;;5071805;28;8961;-75
2023/12/30 14:16:05;;;;;;;;;2.00;2.00;;;;;;;;5064398;28;9162;-72
2023/12/30 14:18:32;;;;;;;;;2.00;2.00;;;;;;;;5069779;28;8941;-74
2023/12/30 14:21:01;;;;;;;;;2.00;2.00;;;;;;;;5066960;28;8964;-72
2023/12/30 14:23:30;;;;;;;;;3.33;2.00;;;;;;;;5071430;28;9167;-72
2023/12/30 14:26:00;;;;;;;;;3.00;1.67;;;;;;;;5056251;28;9087;-75
2023/12/30 14:28:30;;;;;;;;;1.50;1.50;;;;;;;;5068450;28;9007;-75
2023/12/30 14:31:01;;;;;;;;;2.00;2.00;;;;;;;;5070102;28;8871;-75
2023/12/30 14:33:32;;;;;;;;;2.00;2.00;;;;;;;;5068881;28;8961;-74
2023/12/30 14:36:04;;;;;;;;;3.00;3.00;;;;;;;;5071058;28;8943;-74
2023/12/30 14:38:31;;;;;;;;;4.00;2.25;;;;;;;;5059466;28;9622;-74
2023/12/30 14:40:58;;;;;;;;;2.00;2.00;;;;;;;;5074250;28;8881;-75
2023/12/30 14:43:25;;;;;;;;;3.00;3.00;;;;;;;;5074746;28;8846;-74
2023/12/30 14:45:53;;;;;;;;;2.00;2.00;;;;;;;;5069483;28;8863;-72
2023/12/30 14:48:21;;;;;;;;;3.00;3.00;;;;;;;;5069886;28;8859;-73
2023/12/30 14:50:48;;;;;;;;;2.00;2.00;;;;;;;;5068964;28;8884;-73
2023/12/30 14:53:17;;;;;;;;;3.50;3.50;;;;;;;;5070318;28;8851;-73
2023/12/30 14:55:44;;;;;;;;;4.25;2.75;;;;;;;;5070421;28;8858;-75
2023/12/30 14:58:11;;;;;;;;;4.75;3.50;;;;;;;;5071840;28;8858;-73
2023/12/30 15:00:38;;;;;;;;;2.00;2.00;;;;;;;;5071222;28;8787;-75